createdAt,value
2023-04-07T00:02:22.747Z,6.93
2023-04-07T00:04:52.109Z,7.13
2023-04-07T00:07:19.874Z,6.70
2023-04-07T00:09:47.580Z,7.00
2023-04-07T00:12:16.135Z,6.53
2023-04-07T00:14:43.982Z,7.03
2023-04-07T00:17:11.714Z,6.40
2023-04-07T00:19:39.471Z,6.53
2023-04-07T00:22:08.642Z,6.83
2023-04-07T00:24:36.350Z,7.20
2023-04-07T00:27:04.296Z,6.50
2023-04-07T00:29:32.526Z,6.70
2023-04-07T00:32:00.306Z,6.90
2023-04-07T00:34:28.165Z,6.37
2023-04-07T00:36:56.168Z,7.03
2023-04-07T00:39:27.484Z,7.50
2023-04-07T00:41:56.408Z,7.37
2023-04-07T00:44:24.248Z,6.00
2023-04-07T00:46:52.170Z,7.53
2023-04-07T00:49:20.102Z,7.23
2023-04-07T00:51:47.978Z,6.87
2023-04-07T00:54:16.274Z,7.17
2023-04-07T00:56:45.459Z,7.30
2023-04-07T00:59:13.712Z,7.07
2023-04-07T01:01:47.003Z,7.73
2023-04-07T01:04:24.126Z,8.20
2023-04-07T01:06:55.355Z,6.77
2023-04-07T01:09:36.317Z,7.67
2023-04-07T01:12:13.916Z,6.93
2023-04-07T01:14:46.919Z,7.33
2023-04-07T01:17:29.790Z,7.43
2023-04-07T01:20:00.870Z,7.00
2023-04-07T01:22:35.358Z,6.87
2023-04-07T01:25:23.165Z,7.73
2023-04-07T01:28:02.002Z,7.80
2023-04-07T01:30:35.425Z,7.20
2023-04-07T01:33:05.055Z,7.57
2023-04-07T01:35:36.676Z,7.67
2023-04-07T01:38:06.302Z,7.17
2023-04-07T01:40:35.988Z,6.97
2023-04-07T01:43:04.598Z,6.93
2023-04-07T01:45:36.683Z,7.80
2023-04-07T01:48:07.485Z,6.90
2023-04-07T01:50:35.695Z,7.83
2023-04-07T01:53:04.928Z,7.40
2023-04-07T01:55:33.704Z,7.43
2023-04-07T01:58:06.915Z,6.77
2023-04-07T02:00:37.970Z,8.33
2023-04-07T02:03:20.905Z,6.90
2023-04-07T02:05:51.133Z,7.73
2023-04-07T02:08:22.650Z,7.93
2023-04-07T02:10:52.404Z,7.20
2023-04-07T02:13:21.961Z,7.80
2023-04-07T02:15:54.505Z,7.17
2023-04-07T02:18:23.344Z,8.00
2023-04-07T02:20:53.135Z,7.60
2023-04-07T02:23:21.015Z,7.87
2023-04-07T02:25:48.979Z,8.00
2023-04-07T02:28:17.084Z,8.33
2023-04-07T02:30:46.666Z,7.70
2023-04-07T02:33:16.047Z,7.53
2023-04-07T02:35:44.433Z,8.27
2023-04-07T02:38:12.358Z,7.60
2023-04-07T02:40:40.500Z,7.20
2023-04-07T02:43:08.302Z,7.43
2023-04-07T02:45:36.115Z,8.20
2023-04-07T02:48:04.993Z,7.27
2023-04-07T02:50:34.128Z,7.73
2023-04-07T02:53:01.899Z,7.80
2023-04-07T02:55:29.792Z,8.17
2023-04-07T02:57:57.801Z,8.17
2023-04-07T03:00:39.828Z,7.43
2023-04-07T03:03:25.792Z,8.03
2023-04-07T03:06:06.428Z,8.23
2023-04-07T03:08:37.032Z,8.03
2023-04-07T03:11:06.298Z,8.07
2023-04-07T03:13:34.109Z,7.57
2023-04-07T03:16:01.883Z,8.30
2023-04-07T03:18:35.377Z,8.53
2023-04-07T03:21:03.525Z,8.03
2023-04-07T03:23:33.504Z,8.23
2023-04-07T03:26:01.537Z,8.53
2023-04-07T03:28:34.163Z,8.27
2023-04-07T03:31:02.598Z,8.70
2023-04-07T03:33:31.250Z,8.90
2023-04-07T03:35:59.128Z,8.13
2023-04-07T03:38:27.406Z,8.87
2023-04-07T03:41:01.280Z,8.87
2023-04-07T03:43:29.132Z,8.37
2023-04-07T03:45:57.113Z,8.80
2023-04-07T03:48:28.740Z,8.60
2023-04-07T03:51:10.300Z,8.63
2023-04-07T03:53:39.170Z,8.93
2023-04-07T03:56:21.108Z,9.70
2023-04-07T03:58:51.398Z,9.23
2023-04-07T04:01:32.450Z,8.93
2023-04-07T04:04:07.804Z,8.20
2023-04-07T04:06:36.124Z,8.93
2023-04-07T04:09:18.917Z,9.10
2023-04-07T04:11:50.874Z,8.13
2023-04-07T04:14:19.611Z,8.33
2023-04-07T04:16:56.304Z,8.83
2023-04-07T04:19:35.333Z,9.03
2023-04-07T04:22:11.101Z,8.70
2023-04-07T04:24:48.312Z,9.20
2023-04-07T04:27:17.420Z,8.70
2023-04-07T04:29:48.941Z,9.10
2023-04-07T04:32:19.497Z,9.70
2023-04-07T04:34:47.247Z,7.67
2023-04-07T04:37:16.787Z,10.10
2023-04-07T04:39:47.361Z,8.97
2023-04-07T04:42:21.061Z,9.00
2023-04-07T04:44:50.389Z,8.67
2023-04-07T04:47:19.676Z,8.13
2023-04-07T04:49:47.935Z,8.17
2023-04-07T04:52:15.924Z,8.43
2023-04-07T04:54:47.725Z,9.07
2023-04-07T04:57:16.882Z,8.77
2023-04-07T04:59:46.549Z,9.80
2023-04-07T05:02:14.407Z,9.77
2023-04-07T05:04:42.728Z,9.87
2023-04-07T05:07:21.201Z,9.30
2023-04-07T05:09:48.879Z,10.40
2023-04-07T05:12:20.608Z,21.90
2023-04-07T05:14:53.997Z,10.83
2023-04-07T05:17:21.963Z,8.87
2023-04-07T05:19:49.680Z,9.20
2023-04-07T05:22:28.178Z,8.77
2023-04-07T05:24:56.323Z,9.27
2023-04-07T05:27:24.152Z,8.67
2023-04-07T05:29:58.979Z,9.10
2023-04-07T05:32:31.822Z,8.63
2023-04-07T05:35:04.919Z,10.87
2023-04-07T05:37:36.746Z,10.07
2023-04-07T05:40:07.538Z,8.53
2023-04-07T05:42:35.300Z,9.47
2023-04-07T05:45:06.962Z,8.63
2023-04-07T05:47:37.703Z,9.57
2023-04-07T05:50:06.366Z,8.57
2023-04-07T05:52:36.255Z,8.87
2023-04-07T05:55:15.876Z,8.57
2023-04-07T05:57:43.897Z,8.80
2023-04-07T06:00:14.520Z,8.53
2023-04-07T06:02:42.483Z,9.83
2023-04-07T06:05:16.116Z,10.03
2023-04-07T06:07:45.236Z,9.87
2023-04-07T06:10:14.713Z,9.00
2023-04-07T06:12:42.539Z,8.87
2023-04-07T06:15:10.900Z,9.00
2023-04-07T06:17:40.828Z,9.27
2023-04-07T06:20:09.418Z,8.00
2023-04-07T06:22:37.205Z,8.77
2023-04-07T06:25:05.541Z,7.87
2023-04-07T06:27:34.064Z,8.50
2023-04-07T06:30:02.021Z,8.83
2023-04-07T06:32:29.834Z,9.27
2023-04-07T06:34:59.746Z,9.37
2023-04-07T06:37:27.673Z,9.50
2023-04-07T06:39:55.481Z,8.83
2023-04-07T06:42:23.289Z,8.57
2023-04-07T06:45:00.331Z,8.70
2023-04-07T06:47:28.285Z,8.33
2023-04-07T06:49:56.097Z,8.27
2023-04-07T06:52:25.329Z,8.37
2023-04-07T06:54:53.132Z,7.47
2023-04-07T06:57:20.899Z,7.83
2023-04-07T06:59:48.638Z,7.70
2023-04-07T07:02:16.695Z,8.97
2023-04-07T07:04:44.689Z,7.87
2023-04-07T07:07:12.417Z,8.50
2023-04-07T07:09:41.554Z,8.30
2023-04-07T07:12:09.317Z,8.63
2023-04-07T07:14:37.099Z,7.37
2023-04-07T07:17:04.868Z,7.80
2023-04-07T07:19:32.683Z,7.80
2023-04-07T07:22:04.070Z,8.13
2023-04-07T07:24:33.954Z,8.33
2023-04-07T07:27:03.746Z,7.90
2023-04-07T07:29:31.564Z,7.37
2023-04-07T07:31:59.235Z,6.70
2023-04-07T07:34:26.977Z,6.17
2023-04-07T07:36:54.785Z,5.93
2023-04-07T07:39:22.524Z,5.73
2023-04-07T07:41:51.196Z,6.30
2023-04-07T07:44:21.138Z,5.47
2023-04-07T07:46:48.876Z,6.20
2023-04-07T07:49:16.890Z,5.80
2023-04-07T07:51:46.091Z,5.80
2023-04-07T07:54:13.897Z,6.50
2023-04-07T07:56:41.616Z,5.50
2023-04-07T07:59:09.324Z,6.27
2023-04-07T08:01:38.540Z,5.67
2023-04-07T08:04:06.435Z,6.30
2023-04-07T08:06:34.212Z,5.73
2023-04-07T08:09:01.999Z,5.50
2023-04-07T08:11:29.825Z,6.10
2023-04-07T08:13:57.540Z,5.20
2023-04-07T08:16:26.919Z,5.53
2023-04-07T08:18:56.112Z,4.70
2023-04-07T08:21:23.872Z,4.43
2023-04-07T08:23:51.582Z,4.10
2023-04-07T08:26:19.377Z,3.80
2023-04-07T08:28:47.193Z,3.93
2023-04-07T08:31:15.478Z,4.03
2023-04-07T08:33:43.272Z,4.07
2023-04-07T08:36:12.445Z,3.43
2023-04-07T08:38:40.586Z,3.90
2023-04-07T08:41:11.618Z,3.40
2023-04-07T08:43:40.180Z,3.60
2023-04-07T08:46:11.344Z,3.87
2023-04-07T08:48:40.647Z,3.67
2023-04-07T08:51:10.360Z,4.30
2023-04-07T08:53:44.673Z,3.63
2023-04-07T08:56:13.500Z,3.73
2023-04-07T08:58:41.785Z,3.13
2023-04-07T09:01:10.625Z,3.30
2023-04-07T09:03:39.447Z,3.60
2023-04-07T09:06:07.911Z,3.20
2023-04-07T09:08:35.801Z,3.37
2023-04-07T09:11:05.443Z,4.43
2023-04-07T09:13:33.487Z,3.93
2023-04-07T09:16:03.944Z,3.40
2023-04-07T09:18:31.827Z,3.13
2023-04-07T09:21:01.286Z,3.57
2023-04-07T09:23:31.136Z,3.30
2023-04-07T09:26:01.228Z,3.17
2023-04-07T09:28:46.006Z,3.20
2023-04-07T09:31:13.978Z,3.33
2023-04-07T09:33:41.764Z,3.30
2023-04-07T09:36:10.503Z,3.07
2023-04-07T09:38:39.486Z,2.97
2023-04-07T09:41:08.807Z,3.00
2023-04-07T09:43:38.098Z,3.13
2023-04-07T09:46:15.099Z,2.57
2023-04-07T09:48:44.768Z,2.60
2023-04-07T09:51:14.140Z,2.57
2023-04-07T09:53:44.257Z,2.63
2023-04-07T09:56:12.585Z,2.70
2023-04-07T09:58:41.156Z,2.87
2023-04-07T10:01:10.791Z,2.10
2023-04-07T10:03:40.898Z,2.50
2023-04-07T10:06:08.931Z,2.50
2023-04-07T10:08:38.643Z,2.20
2023-04-07T10:11:07.105Z,2.47
2023-04-07T10:13:36.813Z,2.23
2023-04-07T10:16:06.822Z,1.70
2023-04-07T10:18:36.179Z,2.57
2023-04-07T10:21:07.967Z,2.57
2023-04-07T10:23:50.112Z,3.37
2023-04-07T10:26:20.833Z,3.30
2023-04-07T10:28:54.778Z,3.70
2023-04-07T10:31:24.236Z,3.33
2023-04-07T10:33:53.377Z,4.10
2023-04-07T10:36:23.364Z,3.73
2023-04-07T10:39:22.500Z,3.87
2023-04-07T10:41:51.702Z,4.00
2023-04-07T10:44:49.762Z,6.37
2023-04-07T10:47:17.594Z,5.20
2023-04-07T10:50:19.765Z,4.40
2023-04-07T10:52:50.194Z,4.37
2023-04-07T10:55:36.025Z,4.17
2023-04-07T10:58:18.304Z,4.33
2023-04-07T11:01:20.651Z,4.03
2023-04-07T11:03:57.654Z,5.73
2023-04-07T11:06:26.427Z,5.47
2023-04-07T11:08:56.144Z,6.67
2023-04-07T11:11:39.431Z,5.57
2023-04-07T11:14:07.590Z,5.20
2023-04-07T11:16:40.891Z,5.33
2023-04-07T11:19:09.057Z,6.00
2023-04-07T11:21:37.638Z,5.73
2023-04-07T11:24:07.067Z,6.30
2023-04-07T11:26:39.980Z,6.10
2023-04-07T11:29:07.969Z,5.03
2023-04-07T11:31:35.938Z,5.30
2023-04-07T11:34:05.724Z,4.80
2023-04-07T11:36:35.404Z,4.57
2023-04-07T11:39:04.615Z,4.60
2023-04-07T11:41:35.066Z,3.60
2023-04-07T11:44:08.060Z,6.10
2023-04-07T11:46:37.225Z,5.53
2023-04-07T11:49:13.438Z,5.33
2023-04-07T11:51:43.924Z,5.50
2023-04-07T11:54:12.056Z,6.30
2023-04-07T11:56:46.517Z,6.53
2023-04-07T11:59:23.170Z,7.23
2023-04-07T12:01:53.513Z,5.40
2023-04-07T12:04:23.210Z,4.97
2023-04-07T12:06:51.481Z,5.07
2023-04-07T12:09:32.187Z,5.10
2023-04-07T12:12:01.961Z,4.47
2023-04-07T12:14:29.877Z,4.07
2023-04-07T12:16:58.296Z,4.30
2023-04-07T12:19:27.800Z,3.70
2023-04-07T12:21:55.672Z,3.60
2023-04-07T12:24:23.874Z,4.97
2023-04-07T12:26:51.765Z,5.13
2023-04-07T12:29:20.941Z,5.53
2023-04-07T12:31:50.857Z,5.70
2023-04-07T12:34:19.605Z,5.50
2023-04-07T12:36:47.499Z,4.60
2023-04-07T12:39:16.008Z,5.27
2023-04-07T12:41:45.379Z,4.87
2023-04-07T12:44:13.178Z,4.40
2023-04-07T12:46:43.231Z,4.57
2023-04-07T12:49:11.020Z,3.50
2023-04-07T12:51:40.096Z,3.53
2023-04-07T12:54:08.081Z,4.50
2023-04-07T12:56:36.211Z,4.60
2023-04-07T12:59:04.473Z,4.40
2023-04-07T13:01:33.054Z,4.47
2023-04-07T13:04:02.796Z,4.70
2023-04-07T13:06:30.748Z,5.20
2023-04-07T13:08:58.493Z,4.03
2023-04-07T13:11:26.335Z,4.90
2023-04-07T13:13:56.517Z,4.80
2023-04-07T13:16:25.259Z,5.80
2023-04-07T13:18:53.186Z,5.63
2023-04-07T13:21:43.731Z,4.00
2023-04-07T13:24:10.855Z,4.50
2023-04-07T13:26:38.601Z,4.63
2023-04-07T13:29:06.388Z,5.00
2023-04-07T13:31:34.227Z,4.93
2023-04-07T13:34:01.980Z,5.33
2023-04-07T13:36:31.197Z,5.00
2023-04-07T13:38:59.451Z,4.63
2023-04-07T13:41:27.548Z,4.57
2023-04-07T13:43:55.376Z,4.80
2023-04-07T13:46:27.992Z,3.80
2023-04-07T13:48:56.907Z,3.63
2023-04-07T13:51:24.945Z,4.50
2023-04-07T13:53:54.135Z,4.50
2023-04-07T13:56:22.208Z,4.93
2023-04-07T13:58:50.419Z,5.40
2023-04-07T14:01:18.594Z,5.00
2023-04-07T14:03:46.730Z,4.73
2023-04-07T14:06:14.677Z,3.83
2023-04-07T14:08:42.382Z,3.57
2023-04-07T14:11:11.555Z,4.10
2023-04-07T14:13:39.349Z,3.67
2023-04-07T14:16:08.028Z,4.17
2023-04-07T14:18:35.925Z,3.40
2023-04-07T14:21:03.914Z,3.33
2023-04-07T14:23:37.216Z,3.47
2023-04-07T14:26:05.724Z,3.37
2023-04-07T14:28:34.779Z,4.00
2023-04-07T14:31:02.622Z,4.40
2023-04-07T14:33:30.502Z,4.00
2023-04-07T14:35:58.494Z,4.60
2023-04-07T14:38:27.360Z,5.17
2023-04-07T14:40:55.342Z,4.20
2023-04-07T14:43:23.157Z,4.80
2023-04-07T14:45:52.228Z,5.20
2023-04-07T14:48:19.982Z,4.73
2023-04-07T14:50:50.215Z,4.93
2023-04-07T14:53:24.202Z,4.73
2023-04-07T14:55:52.195Z,4.17
2023-04-07T14:58:19.964Z,4.17
2023-04-07T15:00:47.781Z,4.50
2023-04-07T15:03:17.187Z,4.63
2023-04-07T15:05:45.433Z,5.30
2023-04-07T15:08:13.208Z,5.60
2023-04-07T15:10:41.575Z,5.63
2023-04-07T15:13:09.547Z,5.70
2023-04-07T15:15:37.373Z,5.27
2023-04-07T15:18:05.311Z,5.27
2023-04-07T15:20:34.416Z,5.40
2023-04-07T15:23:02.158Z,5.90
2023-04-07T15:25:30.234Z,5.63
2023-04-07T15:27:58.136Z,5.80
2023-04-07T15:30:26.093Z,5.80
2023-04-07T15:33:00.985Z,5.87
2023-04-07T15:35:28.894Z,5.97
2023-04-07T15:37:58.064Z,6.53
2023-04-07T15:40:25.790Z,6.03
2023-04-07T15:42:53.588Z,6.30
2023-04-07T15:45:21.466Z,6.00
2023-04-07T15:47:49.238Z,6.50
2023-04-07T15:50:17.177Z,6.37
2023-04-07T15:52:44.876Z,5.63
2023-04-07T15:55:13.937Z,6.10
2023-04-07T15:57:41.885Z,6.47
2023-04-07T16:00:10.635Z,5.33
2023-04-07T16:02:38.636Z,5.07
2023-04-07T16:05:08.066Z,5.87
2023-04-07T16:07:36.288Z,5.20
2023-04-07T16:10:04.076Z,6.10
2023-04-07T16:12:34.299Z,7.33
2023-04-07T16:15:02.087Z,6.23
2023-04-07T16:17:29.968Z,7.27
2023-04-07T16:19:57.735Z,6.77
2023-04-07T16:22:25.973Z,5.53
2023-04-07T16:24:54.736Z,5.90
2023-04-07T16:27:22.636Z,5.50
2023-04-07T16:29:51.722Z,5.70
2023-04-07T16:32:19.949Z,5.10
2023-04-07T16:34:47.666Z,5.50
2023-04-07T16:37:15.409Z,6.37
2023-04-07T16:39:43.159Z,6.40
2023-04-07T16:42:11.103Z,5.50
2023-04-07T16:44:38.943Z,5.63
2023-04-07T16:47:08.098Z,5.80
2023-04-07T16:49:35.822Z,5.97
2023-04-07T16:52:03.641Z,5.67
2023-04-07T16:54:31.402Z,6.57
2023-04-07T16:56:59.157Z,9.17
2023-04-07T16:59:27.600Z,7.30
2023-04-07T17:01:55.449Z,5.20
2023-04-07T17:04:24.635Z,5.57
2023-04-07T17:06:52.488Z,6.67
2023-04-07T17:09:20.935Z,8.97
2023-04-07T17:11:48.611Z,8.07
2023-04-07T17:14:16.369Z,7.53
2023-04-07T17:16:44.215Z,6.30
2023-04-07T17:19:11.993Z,6.47
2023-04-07T17:21:41.078Z,7.90
2023-04-07T17:24:08.883Z,6.20
2023-04-07T17:26:36.638Z,3.70
2023-04-07T17:29:04.404Z,2.60
2023-04-07T17:31:34.444Z,2.60
2023-04-07T17:34:02.787Z,2.33
2023-04-07T17:36:31.718Z,2.50
2023-04-07T17:39:01.589Z,2.07
2023-04-07T17:41:31.124Z,2.40
2023-04-07T17:43:58.797Z,3.13
2023-04-07T17:46:27.325Z,1.70
2023-04-07T17:48:57.560Z,1.80
2023-04-07T17:51:25.805Z,1.37
2023-04-07T17:53:54.677Z,1.60
2023-04-07T17:56:24.536Z,1.40
2023-04-07T17:58:52.495Z,1.70
2023-04-07T18:01:20.264Z,1.50
2023-04-07T18:03:48.573Z,1.90
2023-04-07T18:06:17.745Z,1.97
2023-04-07T18:08:47.174Z,1.63
2023-04-07T18:11:15.177Z,1.57
2023-04-07T18:13:44.737Z,1.60
2023-04-07T18:16:18.692Z,1.40
2023-04-07T18:18:48.772Z,1.30
2023-04-07T18:21:16.585Z,1.63
2023-04-07T18:23:44.441Z,1.77
2023-04-07T18:26:12.195Z,1.90
2023-04-07T18:28:40.047Z,1.67
2023-04-07T18:31:11.003Z,1.80
2023-04-07T18:33:38.831Z,1.40
2023-04-07T18:36:08.377Z,1.40
2023-04-07T18:38:37.958Z,1.53
2023-04-07T18:41:07.706Z,1.40
2023-04-07T18:43:35.539Z,1.60
2023-04-07T18:46:03.306Z,1.77
2023-04-07T18:48:32.552Z,1.63
2023-04-07T18:51:00.324Z,1.80
2023-04-07T18:53:28.089Z,1.87
2023-04-07T18:55:55.957Z,2.10
2023-04-07T18:58:23.752Z,2.13
2023-04-07T19:00:53.020Z,3.43
2023-04-07T19:03:21.649Z,3.07
2023-04-07T19:05:52.716Z,2.10
2023-04-07T19:08:20.761Z,2.00
2023-04-07T19:10:50.528Z,2.03
2023-04-07T19:13:18.775Z,2.50
2023-04-07T19:15:46.704Z,2.20
2023-04-07T19:18:15.076Z,4.17
2023-04-07T19:20:43.167Z,2.70
2023-04-07T19:23:12.241Z,6.20
2023-04-07T19:25:40.325Z,3.13
2023-04-07T19:28:08.190Z,2.27
2023-04-07T19:30:35.935Z,2.40
2023-04-07T19:33:03.880Z,2.60
2023-04-07T19:35:31.994Z,2.57
2023-04-07T19:38:00.056Z,2.83
2023-04-07T19:40:31.367Z,2.73
2023-04-07T19:42:59.213Z,2.67
2023-04-07T19:45:27.197Z,2.73
2023-04-07T19:47:56.763Z,2.73
2023-04-07T19:50:25.037Z,2.77
2023-04-07T19:52:53.362Z,2.77
2023-04-07T19:55:21.443Z,2.70
2023-04-07T19:57:50.736Z,2.60
2023-04-07T20:00:19.026Z,2.63
2023-04-07T20:02:50.023Z,2.80
2023-04-07T20:05:18.708Z,3.10
2023-04-07T20:07:47.142Z,3.20
2023-04-07T20:10:14.937Z,2.97
2023-04-07T20:12:42.690Z,2.60
2023-04-07T20:15:12.684Z,3.13
2023-04-07T20:17:40.404Z,3.33
2023-04-07T20:20:09.060Z,3.40
2023-04-07T20:22:36.769Z,3.20
2023-04-07T20:25:05.352Z,3.70
2023-04-07T20:27:33.562Z,3.67
2023-04-07T20:30:01.988Z,3.40
2023-04-07T20:32:31.179Z,3.33
2023-04-07T20:34:58.981Z,3.37
2023-04-07T20:37:27.813Z,3.53
2023-04-07T20:39:56.057Z,3.87
2023-04-07T20:42:23.834Z,3.90
2023-04-07T20:44:53.201Z,4.23
2023-04-07T20:47:21.057Z,3.83
2023-04-07T20:49:50.204Z,4.13
2023-04-07T20:52:18.662Z,4.70
2023-04-07T20:54:47.818Z,4.90
2023-04-07T20:57:16.051Z,4.50
2023-04-07T20:59:43.871Z,4.47
2023-04-07T21:02:11.800Z,4.40
2023-04-07T21:04:39.999Z,4.63
2023-04-07T21:07:10.504Z,5.03
2023-04-07T21:09:38.261Z,5.10
2023-04-07T21:12:06.067Z,5.27
2023-04-07T21:14:34.177Z,6.67
2023-04-07T21:17:01.927Z,6.57
2023-04-07T21:19:29.683Z,7.17
2023-04-07T21:21:57.403Z,6.37
2023-04-07T21:24:26.528Z,5.93
2023-04-07T21:26:54.455Z,6.17
2023-04-07T21:29:23.136Z,6.40
2023-04-07T21:31:50.993Z,5.67
2023-04-07T21:34:18.712Z,6.23
2023-04-07T21:36:46.630Z,6.37
2023-04-07T21:39:14.464Z,7.00
2023-04-07T21:41:43.616Z,6.87
2023-04-07T21:44:12.888Z,7.83
2023-04-07T21:46:40.985Z,7.43
2023-04-07T21:49:08.863Z,7.17
2023-04-07T21:51:37.439Z,7.17
2023-04-07T21:54:05.210Z,8.10
2023-04-07T21:56:32.993Z,7.73
2023-04-07T21:59:03.572Z,7.60
2023-04-07T22:01:31.567Z,8.40
2023-04-07T22:03:59.556Z,8.63
2023-04-07T22:06:27.684Z,7.67
2023-04-07T22:09:01.181Z,8.40
2023-04-07T22:11:30.379Z,7.87
2023-04-07T22:13:58.371Z,8.33
2023-04-07T22:16:27.596Z,8.07
2023-04-07T22:18:55.611Z,7.97
2023-04-07T22:21:23.350Z,8.60
2023-04-07T22:23:51.122Z,9.07
2023-04-07T22:26:18.877Z,8.97
2023-04-07T22:28:46.842Z,8.63
2023-04-07T22:31:14.816Z,9.23
2023-04-07T22:33:44.025Z,9.57
2023-04-07T22:36:11.786Z,9.57
2023-04-07T22:38:39.664Z,9.97
2023-04-07T22:41:07.436Z,9.57
2023-04-07T22:43:35.305Z,10.23
2023-04-07T22:46:03.161Z,9.83
2023-04-07T22:48:31.142Z,10.60
2023-04-07T22:51:00.318Z,9.40
2023-04-07T22:53:28.075Z,10.00
2023-04-07T22:55:55.847Z,10.10
2023-04-07T22:58:23.587Z,10.13
2023-04-07T23:00:51.401Z,9.33
2023-04-07T23:03:19.205Z,10.90
2023-04-07T23:05:47.050Z,10.07
2023-04-07T23:08:16.276Z,10.17
2023-04-07T23:10:44.054Z,10.90
2023-04-07T23:13:13.386Z,11.07
2023-04-07T23:15:41.230Z,10.80
2023-04-07T23:18:09.049Z,9.67
2023-04-07T23:20:37.054Z,11.17
2023-04-07T23:23:05.068Z,10.77
2023-04-07T23:25:34.746Z,10.83
2023-04-07T23:28:02.537Z,11.30
2023-04-07T23:30:30.493Z,10.27
2023-04-07T23:32:58.250Z,10.57
2023-04-07T23:35:26.373Z,10.20
2023-04-07T23:37:54.195Z,11.20
2023-04-07T23:40:21.981Z,11.50
2023-04-07T23:42:51.368Z,11.43
2023-04-07T23:45:20.649Z,10.93
2023-04-07T23:47:48.637Z,10.67
2023-04-07T23:50:16.573Z,11.00
2023-04-07T23:52:44.368Z,11.90
2023-04-07T23:55:12.156Z,10.50
2023-04-07T23:57:39.870Z,11.10
